Houghton County Memorial Airport
KCMX : now visible

Airfield :











YOU CAN JOIN US ON...

 
LOGIN :

Register | Disclaimer

   EN    FR    IT 

 









Legend :    VFR   Marginal VFR   IFR   Intensive IFR   Very Intensive IFR
Visi :
Ceiling :
>= 8 km
>= 3000ft
5 to 8 km
1000 to 3000 ft
1500m to 5 km
500 to 1000 ft
800 to 1500m
200 to 500 ft
< 800m
< 200 ft
Symbols :   Thunderstorms  Fog  Heavy snow  Heavy precipitations  Wind > 20 kt






- Airport Elevation : 1095 ft
- IATA code : CMX


KCMX - Houghton County Memorial

CURRENT METAR :
  • 290153Z AUTO 36006KT 10SM SCT008 SCT019 OVC036 03/00 A2993 RMK AO2 RAE18SNB01E13 SLP145 P0001 T00280000

EXPIRED METARs :
  • 290125Z AUTO 35004KT 7SM FEW006 SCT014 OVC036 02/00 A2993 RMK AO2 RAE18SNB01E13 P0001 T00220000
  • 290118Z AUTO 33004KT 6SM BR SCT006 BKN012 OVC036 02/00 A2992 RMK AO2 RAE18SNB01E13 P0001 T00170000
  • 290053Z AUTO 30003KT 4SM -RA BR BKN005 OVC012 02/01 A2992 RMK AO2 RAB33 CIG 004V009 SLP146 P0002 T00220006
  • 282353Z AUTO 29006KT 9SM OVC006 02/01 A2989 RMK AO2 CIG 005V009 SLP133 60006 T00220006 10039 20017 53027
  • 282340Z AUTO 31007KT 8SM BKN008 OVC012 02/00 A2987 RMK AO2 CIG 004V010 T00220000
  • 282327Z AUTO 30007KT 8SM SCT003 OVC010 02/00 A2987 RMK AO2 CIG 006V013 T00220000

TAF KCMX
Valid from the 29 at 00:00 until the 30 at 00:00 UTC


282320Z 2900/2924 32008KT 3SM BR VCSH BKN003
FM290100 34008KT 5SM BR VCSH BKN010
FM290200 36009KT 6SM BR BKN015
FM290300 36010G18KT P6SM BKN019
FM290400 01010G18KT P6SM BKN021
FM291200 02008KT P6SM BKN021
KZMP FIR / North America



MET'MAP, your aeronautical weather chart ! - Copyright ORBIFLY December 2007 - Disclaimer

ORBIFLY MET'MAP TEAM :

Programming & Development : Alexandra Zaïnal
Concept & original design : Baudouin d'Aumeries
Assistance for programming : Marc-Olivier Méhu
Technical & hardware support : Manuel Goepfert

Contact : metmap@orbifly.com




SOURCES & CREDITS :

   NOAA       Earth
Advisory